X  Schlie├čen METAR Luftfahrt Wetterdaten        EDDE Erfurt
Temperatur
14°C Temperatur
4°C Taupunkt
51% Feuchtigkeit



Wind
6 km/h
3 MPS
1 M/S
3 KTS



-1°
VRB
Aktuelle Wetterlage

Mostly Sunny Meist sonnig
Luftdruck 1011 (hPa) - 29.85 (inHg)
Sichtweite 6 (Meile) - 10 (Km)
Flughafen
Flughafen Code EDDE

Position : Erfurt
Entfernung: 25 (Km)

Metar:
METAR EDDE 301150Z AUTO VRB03KT CAVOK 14/04 Q1011 NOSIG

Zeit: 30.09.2022 13:50 CEST